Time,TemperatureF,DewpointF,PressureIn,WindDirection,WindDirectionDegrees,WindSpeedMPH,WindSpeedGustMPH,Humidity,HourlyPrecipIn,Conditions,Clouds,dailyrainin,SolarRadiationWatts/m^2,SoftwareType,DateUTC
2013-03-21 00:23:00,41.0,39.0,-100.00,NE,55,0.0,2.0,92,0.00,,,0.00,0.000000,,2013-03-21 04:23:00,
2013-03-21 00:33:00,41.0,39.0,-100.00,NE,55,0.0,2.0,92,0.00,,,0.00,0.000000,,2013-03-21 04:33:00,
2013-03-21 00:43:00,41.0,39.0,-100.00,NE,55,0.0,2.0,92,0.00,,,0.00,0.000000,,2013-03-21 04:43:00,
2013-03-21 00:53:00,41.0,39.0,-100.00,NE,55,0.0,2.0,92,0.00,,,0.00,0.000000,,2013-03-21 04:53:00,
2013-03-21 01:22:00,42.0,41.0,-100.00,West,281,1.0,5.0,95,0.00,,,0.00,0.000000,,2013-03-21 05:22:00,
2013-03-21 01:33:00,42.0,41.0,-100.00,West,281,1.0,5.0,95,0.00,,,0.00,0.000000,,2013-03-21 05:33:00,
2013-03-21 01:44:00,42.0,41.0,-100.00,West,281,1.0,5.0,95,0.00,,,0.00,0.000000,,2013-03-21 05:44:00,
2013-03-21 01:52:00,42.0,41.0,-100.00,West,281,1.0,5.0,95,0.00,,,0.00,0.000000,,2013-03-21 05:52:00,
2013-03-21 02:23:00,44.0,40.0,-100.00,West,270,2.0,3.0,86,0.00,,,0.00,0.000000,,2013-03-21 06:23:00,
2013-03-21 02:32:00,44.0,40.0,-100.00,West,270,2.0,3.0,86,0.00,,,0.00,0.000000,,2013-03-21 06:32:00,
2013-03-21 02:42:00,44.0,40.0,-100.00,West,270,2.0,3.0,86,0.00,,,0.00,0.000000,,2013-03-21 06:42:00,
2013-03-21 02:52:00,44.0,40.0,-100.00,West,270,2.0,3.0,86,0.00,,,0.00,0.000000,,2013-03-21 06:52:00,
2013-03-21 03:22:00,45.0,34.0,-100.00,WNW,285,4.0,7.0,65,0.00,,,0.00,0.000000,,2013-03-21 07:22:00,
2013-03-21 03:32:00,45.0,34.0,-100.00,WNW,285,4.0,7.0,65,0.00,,,0.00,0.000000,,2013-03-21 07:32:00,
2013-03-21 03:42:00,45.0,34.0,-100.00,WNW,285,4.0,7.0,65,0.00,,,0.00,0.000000,,2013-03-21 07:42:00,
2013-03-21 03:52:00,45.0,34.0,-100.00,WNW,285,4.0,7.0,65,0.00,,,0.00,0.000000,,2013-03-21 07:52:00,
2013-03-21 04:23:00,45.0,32.0,-100.00,West,273,6.0,10.0,61,0.00,,,0.00,0.000000,,2013-03-21 08:23:00,
2013-03-21 04:33:00,45.0,32.0,-100.00,West,273,6.0,10.0,61,0.00,,,0.00,0.000000,,2013-03-21 08:33:00,
2013-03-21 04:42:00,45.0,32.0,-100.00,West,273,6.0,10.0,61,0.00,,,0.00,0.000000,,2013-03-21 08:42:00,
2013-03-21 04:52:00,45.0,32.0,-100.00,West,273,6.0,10.0,61,0.00,,,0.00,0.000000,,2013-03-21 08:52:00,
2013-03-21 05:22:00,47.0,27.0,-100.00,WNW,303,9.0,19.0,46,0.00,,,0.00,0.000000,,2013-03-21 09:22:00,
2013-03-21 05:33:00,47.0,27.0,-100.00,WNW,303,9.0,19.0,46,0.00,,,0.00,0.000000,,2013-03-21 09:33:00,
2013-03-21 05:43:00,47.0,27.0,-100.00,WNW,303,9.0,19.0,46,0.00,,,0.00,0.000000,,2013-03-21 09:43:00,
2013-03-21 05:53:00,47.0,27.0,-100.00,WNW,303,9.0,19.0,46,0.00,,,0.00,0.000000,,2013-03-21 09:53:00,
2013-03-21 06:23:00,45.0,27.0,-100.00,NW,312,8.0,15.0,49,0.00,,,0.00,0.000000,,2013-03-21 10:23:00,
2013-03-21 06:34:00,45.0,27.0,-100.00,NW,312,8.0,15.0,49,0.00,,,0.00,0.000000,,2013-03-21 10:34:00,
2013-03-21 06:42:00,45.0,27.0,-100.00,NW,312,8.0,15.0,49,0.00,,,0.00,0.000000,,2013-03-21 10:42:00,
2013-03-21 06:53:00,45.0,27.0,-100.00,NW,312,8.0,15.0,49,0.00,,,0.00,0.000000,,2013-03-21 10:53:00,
2013-03-21 07:23:00,44.0,28.0,-100.00,NW,309,8.0,14.0,54,0.00,,,0.00,0.000000,,2013-03-21 11:23:00,
2013-03-21 07:33:00,44.0,28.0,-100.00,NW,309,8.0,14.0,54,0.00,,,0.00,0.000000,,2013-03-21 11:33:00,
2013-03-21 07:43:00,44.0,28.0,-100.00,NW,309,8.0,14.0,54,0.00,,,0.00,0.000000,,2013-03-21 11:43:00,
2013-03-21 07:52:00,44.0,28.0,-100.00,NW,309,8.0,14.0,54,0.00,,,0.00,0.000000,,2013-03-21 11:52:00,
2013-03-21 08:22:00,42.0,28.0,-100.00,NW,310,6.0,14.0,58,0.00,,,0.00,8.000000,,2013-03-21 12:22:00,
2013-03-21 08:33:00,42.0,28.0,-100.00,NW,310,6.0,14.0,58,0.00,,,0.00,8.000000,,2013-03-21 12:33:00,
2013-03-21 08:43:00,42.0,28.0,-100.00,NW,310,6.0,14.0,58,0.00,,,0.00,8.000000,,2013-03-21 12:43:00,
2013-03-21 08:52:00,42.0,28.0,-100.00,NW,310,6.0,14.0,58,0.00,,,0.00,8.000000,,2013-03-21 12:52:00,
2013-03-21 09:22:00,45.0,28.0,-100.00,WNW,303,8.0,16.0,52,0.00,,,0.00,147.000000,,2013-03-21 13:22:00,
2013-03-21 09:32:00,45.0,28.0,-100.00,WNW,303,8.0,16.0,52,0.00,,,0.00,147.000000,,2013-03-21 13:32:00,
2013-03-21 09:42:00,45.0,28.0,-100.00,WNW,303,8.0,16.0,52,0.00,,,0.00,147.000000,,2013-03-21 13:42:00,
2013-03-21 09:52:00,45.0,28.0,-100.00,WNW,303,8.0,16.0,52,0.00,,,0.00,147.000000,,2013-03-21 13:52:00,
2013-03-21 10:22:00,48.0,24.0,-100.00,WNW,303,11.0,18.0,39,0.00,,,0.00,393.000000,,2013-03-21 14:22:00,
2013-03-21 10:32:00,48.0,24.0,-100.00,WNW,303,11.0,18.0,39,0.00,,,0.00,393.000000,,2013-03-21 14:32:00,
2013-03-21 10:42:00,48.0,24.0,-100.00,WNW,303,11.0,18.0,39,0.00,,,0.00,393.000000,,2013-03-21 14:42:00,
2013-03-21 10:52:00,48.0,24.0,-100.00,WNW,303,11.0,18.0,39,0.00,,,0.00,393.000000,,2013-03-21 14:52:00,
2013-03-21 11:22:00,50.0,20.0,-100.00,NW,304,13.0,27.0,30,0.00,,,0.00,634.000000,,2013-03-21 15:22:00,
2013-03-21 11:33:00,50.0,20.0,-100.00,NW,304,13.0,27.0,30,0.00,,,0.00,634.000000,,2013-03-21 15:33:00,
2013-03-21 11:42:00,50.0,20.0,-100.00,NW,304,13.0,27.0,30,0.00,,,0.00,634.000000,,2013-03-21 15:42:00,
2013-03-21 11:53:00,50.0,20.0,-100.00,NW,304,13.0,27.0,30,0.00,,,0.00,634.000000,,2013-03-21 15:53:00,
2013-03-21 12:23:00,52.0,20.0,-100.00,WNW,296,13.0,24.0,28,0.00,,,0.00,780.000000,,2013-03-21 16:23:00,
2013-03-21 12:33:00,52.0,20.0,-100.00,WNW,296,13.0,24.0,28,0.00,,,0.00,780.000000,,2013-03-21 16:33:00,
2013-03-21 12:42:00,52.0,20.0,-100.00,WNW,296,13.0,24.0,28,0.00,,,0.00,780.000000,,2013-03-21 16:42:00,
2013-03-21 12:52:00,52.0,20.0,-100.00,WNW,296,13.0,24.0,28,0.00,,,0.00,780.000000,,2013-03-21 16:52:00,
2013-03-21 13:23:00,56.0,21.0,-100.00,WNW,296,11.0,26.0,25,0.00,,,0.00,901.000000,,2013-03-21 17:23:00,
2013-03-21 13:33:00,56.0,21.0,-100.00,WNW,296,11.0,26.0,25,0.00,,,0.00,901.000000,,2013-03-21 17:33:00,
2013-03-21 13:43:00,56.0,21.0,-100.00,WNW,296,11.0,26.0,25,0.00,,,0.00,901.000000,,2013-03-21 17:43:00,
2013-03-21 13:52:00,56.0,21.0,-100.00,WNW,296,11.0,26.0,25,0.00,,,0.00,901.000000,,2013-03-21 17:52:00,
2013-03-21 14:23:00,57.0,22.0,-100.00,WNW,284,11.0,23.0,25,0.00,,,0.00,895.000000,,2013-03-21 18:23:00,
2013-03-21 14:32:00,57.0,22.0,-100.00,WNW,284,11.0,23.0,25,0.00,,,0.00,895.000000,,2013-03-21 18:32:00,
2013-03-21 14:42:00,57.0,22.0,-100.00,WNW,284,11.0,23.0,25,0.00,,,0.00,895.000000,,2013-03-21 18:42:00,
2013-03-21 14:52:00,57.0,22.0,-100.00,WNW,284,11.0,23.0,25,0.00,,,0.00,895.000000,,2013-03-21 18:52:00,
2013-03-21 15:23:00,58.0,20.0,-100.00,West,279,14.0,25.0,23,0.00,,,0.00,862.000000,,2013-03-21 19:23:00,
2013-03-21 15:32:00,58.0,20.0,-100.00,West,279,14.0,25.0,23,0.00,,,0.00,862.000000,,2013-03-21 19:32:00,
2013-03-21 15:43:00,58.0,20.0,-100.00,West,279,14.0,25.0,23,0.00,,,0.00,862.000000,,2013-03-21 19:43:00,
2013-03-21 15:52:00,58.0,20.0,-100.00,West,279,14.0,25.0,23,0.00,,,0.00,862.000000,,2013-03-21 19:52:00,
2013-03-21 16:23:00,58.0,18.0,-100.00,West,266,13.0,24.0,21,0.00,,,0.00,706.000000,,2013-03-21 20:23:00,
2013-03-21 16:33:00,58.0,18.0,-100.00,West,266,13.0,24.0,21,0.00,,,0.00,706.000000,,2013-03-21 20:33:00,
2013-03-21 16:42:00,58.0,18.0,-100.00,West,266,13.0,24.0,21,0.00,,,0.00,706.000000,,2013-03-21 20:42:00,
2013-03-21 16:53:00,58.0,18.0,-100.00,West,266,13.0,24.0,21,0.00,,,0.00,706.000000,,2013-03-21 20:53:00,
2013-03-21 17:23:00,59.0,20.0,-100.00,WNW,283,13.0,23.0,22,0.00,,,0.00,602.000000,,2013-03-21 21:23:00,
2013-03-21 17:33:00,59.0,20.0,-100.00,WNW,283,13.0,23.0,22,0.00,,,0.00,602.000000,,2013-03-21 21:33:00,
2013-03-21 17:43:00,59.0,20.0,-100.00,WNW,283,13.0,23.0,22,0.00,,,0.00,602.000000,,2013-03-21 21:43:00,
2013-03-21 17:53:00,59.0,20.0,-100.00,WNW,283,13.0,23.0,22,0.00,,,0.00,602.000000,,2013-03-21 21:53:00,
2013-03-21 18:23:00,58.0,19.0,-100.00,West,281,11.0,24.0,22,0.00,,,0.00,401.000000,,2013-03-21 22:23:00,
2013-03-21 18:33:00,58.0,19.0,-100.00,West,281,11.0,24.0,22,0.00,,,0.00,401.000000,,2013-03-21 22:33:00,
2013-03-21 18:42:00,58.0,19.0,-100.00,West,281,11.0,24.0,22,0.00,,,0.00,401.000000,,2013-03-21 22:42:00,
2013-03-21 18:52:00,58.0,19.0,-100.00,West,281,11.0,24.0,22,0.00,,,0.00,401.000000,,2013-03-21 22:52:00,
2013-03-21 19:22:00,55.0,16.0,-100.00,WNW,302,11.0,24.0,21,0.00,,,0.00,195.000000,,2013-03-21 23:22:00,
2013-03-21 19:33:00,55.0,16.0,-100.00,WNW,302,11.0,24.0,21,0.00,,,0.00,195.000000,,2013-03-21 23:33:00,
2013-03-21 19:43:00,55.0,16.0,-100.00,WNW,302,11.0,24.0,21,0.00,,,0.00,195.000000,,2013-03-21 23:43:00,
2013-03-21 19:52:00,55.0,16.0,-100.00,WNW,302,11.0,24.0,21,0.00,,,0.00,195.000000,,2013-03-21 23:52:00,
2013-03-21 20:22:00,52.0,20.0,-100.00,West,280,9.0,16.0,28,0.00,,,0.00,23.000000,,2013-03-22 00:22:00,
2013-03-21 20:32:00,52.0,20.0,-100.00,West,280,9.0,16.0,28,0.00,,,0.00,23.000000,,2013-03-22 00:32:00,
2013-03-21 20:42:00,52.0,20.0,-100.00,West,280,9.0,16.0,28,0.00,,,0.00,23.000000,,2013-03-22 00:42:00,
2013-03-21 20:52:00,52.0,20.0,-100.00,West,280,9.0,16.0,28,0.00,,,0.00,23.000000,,2013-03-22 00:52:00,
2013-03-21 21:22:00,50.0,19.0,-100.00,WNW,300,4.0,11.0,29,0.00,,,0.00,0.000000,,2013-03-22 01:22:00,
2013-03-21 21:32:00,50.0,19.0,-100.00,WNW,300,4.0,11.0,29,0.00,,,0.00,0.000000,,2013-03-22 01:32:00,
2013-03-21 21:43:00,50.0,19.0,-100.00,WNW,300,4.0,11.0,29,0.00,,,0.00,0.000000,,2013-03-22 01:43:00,
2013-03-21 21:53:00,50.0,19.0,-100.00,WNW,300,4.0,11.0,29,0.00,,,0.00,0.000000,,2013-03-22 01:53:00,
2013-03-21 22:22:00,45.0,21.0,-100.00,NW,308,2.0,6.0,38,0.00,,,0.00,0.000000,,2013-03-22 02:22:00,
2013-03-21 22:32:00,45.0,21.0,-100.00,NW,308,2.0,6.0,38,0.00,,,0.00,0.000000,,2013-03-22 02:32:00,
2013-03-21 22:43:00,45.0,21.0,-100.00,NW,308,2.0,6.0,38,0.00,,,0.00,0.000000,,2013-03-22 02:43:00,
2013-03-21 22:52:00,45.0,21.0,-100.00,NW,308,2.0,6.0,38,0.00,,,0.00,0.000000,,2013-03-22 02:52:00,
2013-03-21 23:22:00,40.0,24.0,-100.00,NW,313,3.0,4.0,52,0.00,,,0.00,0.000000,,2013-03-22 03:22:00,
2013-03-21 23:33:00,40.0,24.0,-100.00,NW,313,3.0,4.0,52,0.00,,,0.00,0.000000,,2013-03-22 03:33:00,
2013-03-21 23:43:00,40.0,24.0,-100.00,NW,313,3.0,4.0,52,0.00,,,0.00,0.000000,,2013-03-22 03:43:00,
2013-03-21 23:53:00,40.0,24.0,-100.00,NW,313,3.0,4.0,52,0.00,,,0.00,0.000000,,2013-03-22 03:53:00,